This is the latest recevied weather packets stored in our database for station/object JI8TEY-15. If no packets are shown the sender has not sent any weather packets the latest 10 day(s).
| Time | Temp. | Humidity | Pressure | Rain* | Wind** | Luminosity | Snow |
|---|---|---|---|---|---|---|---|
| 1777921055 | 5.56° C | 82% | 1006 hPa | 0 mm | - | - | - |
| 1777917454 | 5.56° C | 86% | 1005 hPa | 0 mm | - | - | - |
| 1777913855 | 5° C | 89% | 1003 hPa | 0 mm | - | - | - |
| 1777910255 | 4.44° C | 95% | 1002 hPa | 0 mm | - | - | - |
| 1777906653 | 2.78° C | 99% | 1000 hPa | 0 mm | - | - | - |
| 1777903054 | 2.78° C | 99% | 997 hPa | 1.02 mm | - | - | - |
| 1777899455 | 3.89° C | 99% | 996 hPa | 0 mm | - | - | - |
| 1777895854 | 4.44° C | 99% | 994 hPa | 1.02 mm | - | - | - |
| 1777892254 | 5.56° C | 99% | 991 hPa | 1.27 mm | - | - | - |
| 1777888653 | 7.22° C | 97% | 989 hPa | 0 mm | - | - | - |
| 1777885054 | 8.89° C | 97% | 989 hPa | 0 mm | - | - | - |
| 1777881455 | 10° C | 95% | 988 hPa | 0 mm | - | - | - |
| 1777877855 | 11.67° C | 89% | 987 hPa | 0 mm | - | - | - |
| 1777874254 | 15° C | 81% | 986 hPa | 6.1 mm | - | - | - |
| 1777870654 | 16.11° C | 86% | 986 hPa | 0 mm | - | - | - |
| 1777867055 | 14.44° C | 96% | 986 hPa | 0 mm | - | - | - |
| 1777863454 | 11.67° C | 99% | 987 hPa | 0 mm | - | - | - |
| 1777859854 | 10.56° C | 99% | 988 hPa | 0 mm | - | - | - |
| 1777856254 | 10° C | 99% | 989 hPa | 1.02 mm | - | - | - |
| 1777852654 | 9.44° C | 99% | 990 hPa | 2.29 mm | - | - | - |
| 1777849053 | 9.44° C | 99% | 991 hPa | 1.02 mm | - | - | - |
| 1777845455 | 9.44° C | 99% | 991 hPa | 1.02 mm | - | - | - |
| 1777841855 | 9.44° C | 99% | 993 hPa | 0 mm | - | - | - |
| 1777838253 | 10.56° C | 91% | 994 hPa | 0 mm | - | - | - |
| 1777834654 | 10.56° C | 89% | 995 hPa | 0 mm | - | - | - |
* Rain latest hour (hover to see other rain measurements)
** Current wind speed in m/s (hover to see current wind gust speed)